DW2201 Weather Reports


Display with metric or nautical units.
time (UTC)temp
F
wind
direction
speed
MPH
gust
MPH
rain 1hr
in
rain 24hr
in
rain mn
in
humidity
%
barometer
mb
20210622233037 68 360 3.0 10.0 0.00 0.83 0.83 90 1012.5
20210622231520 68 336 2.0 6.0 0.00 0.83 0.83 91 1012.5
20210622230019 68 355 0.0 3.0 0.00 0.83 0.83 92 1012.1
20210622224515 68 355 0.0 4.0 0.00 0.83 0.83 92 1011.8
20210622223018 68 247 1.0 7.0 0.00 0.83 0.83 92 1011.6
20210622221514 68 282 0.0 5.0 0.00 0.83 0.83 93 1011.3
20210622220013 68 343 0.0 4.0 0.00 0.83 0.83 93 1011.1
20210622214506 68 286 3.0 9.0 0.00 0.83 0.83 92 1011.0
20210622213003 69 275 0.0 10.0 0.00 0.83 0.83 93 1010.6
20210622211707 69 340 0.0 3.0 0.00 0.83 0.83 94 1010.1
20210622210223 68 244 1.0 6.0 0.03 0.83 0.83 94 1009.9
20210622204615 68 279 2.0 4.0 0.05 0.83 0.83 94 1009.3
20210622203220 67 338 0.0 0.0 0.08 0.83 0.83 94 1008.6
20210622201658 67 315 0.0 3.0 0.11 0.83 0.83 94 1008.3
20210622200156 67 179 0.0 6.0 0.27 0.80 0.80 93 1008.8
20210622194625 67 289 2.0 16.0 0.37 0.78 0.78 93 1008.7
20210622193229 67 347 7.0 16.0 0.49 0.75 0.75 93 1008.8
20210622191630 67 360 4.0 15.0 0.50 0.72 0.72 93 1008.9
20210622190123 67 348 5.0 18.0 0.34 0.52 0.52 92 1008.9
20210622184614 73 335 11.0 22.0 0.23 0.40 0.40 87 1009.0
20210622183135 75 274 4.0 12.0 0.08 0.25 0.25 92 1007.7
20210622181624 76 256 2.0 17.0 0.05 0.22 0.22 90 1007.4
20210622180101 78 249 5.0 16.0 0.02 0.18 0.18 86 1007.0
20210622174631 78 285 4.0 17.0 0.05 0.17 0.17 86 1006.9
20210622173042 78 194 3.0 12.0 0.17 0.17 0.17 89 1006.7
20210622171557 77 271 5.0 13.0 0.17 0.17 0.17 91 1006.6
20210622170105 76 246 3.0 14.0 0.16 0.16 0.16 90 1006.7
20210622164556 79 241 10.0 23.0 0.09 0.09 0.09 80 1007.2
20210622163058 82 238 6.0 12.0 0.00 0.00 0.00 73 1006.8
20210622161541 83 169 3.0 12.0 0.00 0.00 0.00 72 1006.7
20210622160101 84 227 4.0 18.0 0.00 0.00 0.00 70 1007.1
20210622154609 84 230 4.0 12.0 0.00 0.00 0.00 71 1007.3
20210622153052 83 262 4.0 15.0 0.00 0.00 0.00 72 1007.4
20210622151543 82 252 4.0 14.0 0.00 0.00 0.00 75 1007.5
20210622150036 81 236 4.0 12.0 0.00 0.00 0.00 77 1007.6
20210622144533 80 208 3.0 8.0 0.00 0.00 0.00 79 1007.7
20210622143025 80 258 4.0 10.0 0.00 0.00 0.00 79 1007.8
20210622141527 81 242 4.0 14.0 0.00 0.00 0.00 78 1007.8
20210622140053 81 216 4.0 13.0 0.00 0.00 0.00 77 1007.6
20210622134527 81 232 6.0 14.0 0.00 0.00 0.00 77 1007.5
20210622133028 80 272 7.0 15.0 0.00 0.00 0.00 79 1007.5
20210622131557 80 250 3.0 12.0 0.00 0.00 0.00 81 1007.8
20210622130042 80 177 4.0 11.0 0.00 0.00 0.00 81 1007.7
20210622124518 80 244 4.0 11.0 0.00 0.00 0.00 81 1007.7
20210622123010 79 232 3.0 11.0 0.00 0.00 0.00 82 1007.7
20210622121544 79 246 2.0 10.0 0.00 0.00 0.00 82 1007.6
20210622120010 79 253 1.0 8.0 0.00 0.00 0.00 83 1007.5
20210622114505 79 291 3.0 12.0 0.00 0.00 0.00 83 1007.6
20210622113005 78 202 3.0 6.0 0.00 0.00 0.00 84 1007.4
20210622111502 78 220 2.0 5.0 0.00 0.00 0.00 85 1007.3
20210622110146 77 234 1.0 5.0 0.00 0.00 0.00 85 1007.2
20210622104646 77 234 2.0 7.0 0.00 0.00 0.00 85 1007.1
20210622103343 77 221 0.0 4.0 0.00 0.00 0.00 86 1006.8
20210622101721 77 229 2.0 4.0 0.00 0.00 0.00 86 1006.7
20210622100130 77 201 1.0 4.0 0.00 0.00 0.00 86 1006.6
20210622094615 77 191 1.0 6.0 0.00 0.00 0.00 86 1006.5
20210622093118 77 211 0.0 3.0 0.00 0.00 0.00 85 1006.5
20210622091633 77 230 0.0 2.0 0.00 0.00 0.00 85 1006.5
20210622090134 78 224 0.0 4.0 0.00 0.00 0.00 84 1006.4
20210622084603 78 221 1.0 5.0 0.00 0.00 0.00 84 1006.4
20210622083110 78 222 0.0 7.0 0.00 0.00 0.00 84 1006.5
20210622081641 78 230 0.0 4.0 0.00 0.00 0.00 83 1006.5
20210622080058 78 229 1.0 5.0 0.00 0.00 0.00 83 1006.4
20210622074700 78 194 0.0 4.0 0.00 0.00 0.00 83 1006.3
20210622073111 78 204 0.0 4.0 0.00 0.00 0.00 82 1006.3
20210622071539 79 235 0.0 4.0 0.00 0.00 0.00 81 1006.4
20210622070056 79 235 2.0 5.0 0.00 0.00 0.00 81 1006.4
20210622064620 79 239 0.0 4.0 0.00 0.00 0.00 80 1006.6
20210622063115 80 254 0.0 8.0 0.00 0.00 0.00 79 1006.7
20210622061544 80 228 1.0 5.0 0.00 0.00 0.00 79 1006.7
20210622060135 80 269 0.0 4.0 0.00 0.00 0.00 79 1006.7
20210622054545 80 241 0.0 5.0 0.00 0.00 0.00 78 1006.8
20210622053032 80 210 0.0 3.0 0.00 0.00 0.00 77 1006.8
20210622051600 81 204 2.0 6.0 0.00 0.00 0.00 77 1006.8
20210622050101 81 227 2.0 5.0 0.00 0.00 0.00 76 1006.9
20210622044537 81 225 2.0 6.0 0.00 0.00 0.00 75 1006.8
20210622043018 82 286 2.0 5.0 0.00 0.00 0.00 74 1006.9
20210622041530 82 235 3.0 7.0 0.00 0.00 0.00 73 1007.1
20210622040014 83 254 2.0 10.0 0.00 0.00 0.00 73 1007.3
20210622034541 83 262 1.0 10.0 0.00 0.00 0.00 73 1007.3
20210622033019 83 269 2.0 12.0 0.00 0.00 0.00 73 1007.3
20210622031510 83 259 4.0 9.0 0.00 0.00 0.00 73 1007.3
20210622030010 83 218 2.0 11.0 0.00 0.00 0.00 73 1007.3
20210622024525 83 252 2.0 12.0 0.00 0.00 0.00 73 1007.3
20210622023010 83 257 2.0 7.0 0.00 0.00 0.00 73 1007.3
20210622021509 84 217 1.0 4.0 0.00 0.00 0.00 73 1007.3
20210622020033 84 230 1.0 3.0 0.00 0.00 0.00 72 1007.2
20210622014505 84 238 1.0 5.0 0.00 0.00 0.00 72 1007.0
20210622013003 85 256 1.0 6.0 0.00 0.00 0.00 71 1006.7
20210622011501 85 259 2.0 5.0 0.00 0.00 0.00 71 1006.5
20210622010258 85 248 1.0 9.0 0.00 0.00 0.00 71 1006.4
20210622004719 86 232 1.0 8.0 0.00 0.00 0.00 70 1006.2
20210622003309 86 243 1.0 4.0 0.00 0.00 0.00 69 1006.2
20210622001735 87 250 2.0 8.0 0.00 0.00 0.00 67 1006.0
20210622000109 88 269 2.0 8.0 0.00 0.00 0.00 66 1005.8
20210621234820 89 294 2.0 9.0 0.00 0.00 0.00 64 1005.8